Time;durP1;ratioP1;P1;durP2;ratioP2;P2;SDS_P1;SDS_P2;PMS_P1;PMS_P2;Temp;Humidity;BMP_temperature;BMP_pressure;BME280_temperature;BME280_humidity;BME280_pressure;Samples;Min_cycle;Max_cycle;Signal;HPM_P1;HPM_P2
2022/05/28 00:01:36;;;;;;;;;;;;;;;17.89;86.98;95058.78;5114105;28;1906;-49
2022/05/28 00:04:05;;;;;;;;;;;;;;;17.83;86.78;95059.56;5114746;28;968;-49
2022/05/28 00:06:32;;;;;;;;;;;;;;;17.86;86.75;95061.91;5130220;27;1157;-50
2022/05/28 00:08:59;;;;;;;;;;;;;;;17.93;85.98;95058.16;5134772;27;990;-50
2022/05/28 00:11:26;;;;;;;;;;;;;;;17.77;86.21;95066.66;5134837;27;1051;-50
2022/05/28 00:13:53;;;;;;;;;;;;;;;17.88;86.27;95068.75;5134818;27;1233;-50
2022/05/28 00:16:19;;;;;;;;;;;;;;;17.80;87.15;95068.13;5135099;27;963;-49
2022/05/28 00:18:46;;;;;;;;;;;;;;;17.69;85.78;95069.56;5134548;27;1028;-50
2022/05/28 00:21:13;;;;;;;;;;;;;;;17.74;86.04;95062.50;5133767;27;1983;-50
2022/05/28 00:23:40;;;;;;;;;;;;;;;17.79;86.44;95061.03;5134284;27;996;-50
2022/05/28 00:26:06;;;;;;;;;;;;;;;17.82;85.50;95055.22;5134729;27;1037;-49
2022/05/28 00:28:33;;;;;;;;;;;;;;;17.58;85.99;95054.78;5134662;27;944;-49
2022/05/28 00:31:00;;;;;;;;;;;;;;;17.44;87.49;95055.84;5134573;27;964;-50
2022/05/28 00:33:27;;;;;;;;;;;;;;;17.57;86.86;95047.75;5134420;27;1083;-50
2022/05/28 00:35:53;;;;;;;;;;;;;;;17.76;85.78;95046.06;5134423;27;1022;-49
2022/05/28 00:38:19;;;;;;;;;;;;;;;17.78;85.79;95046.69;5134325;27;1051;-49
2022/05/28 00:40:47;;;;;;;;;;;;;;;17.76;86.07;95038.78;5134555;27;2045;-49
2022/05/28 00:43:14;;;;;;;;;;;;;;;17.73;85.64;95044.59;5134371;27;1058;-49
2022/05/28 00:45:40;;;;;;;;;;;;;;;17.68;86.57;95046.25;5134267;27;962;-49
2022/05/28 00:48:07;;;;;;;;;;;;;;;17.69;86.31;95037.94;5134217;27;972;-50
2022/05/28 00:50:35;;;;;;;;;;;;;;;17.62;86.14;95037.09;5134159;27;1024;-50
2022/05/28 00:53:03;;;;;;;;;;;;;;;17.61;86.32;95034.63;5134091;27;1095;-50
2022/05/28 00:55:31;;;;;;;;;;;;;;;17.51;85.64;95029.63;5134163;27;953;-49
2022/05/28 00:57:59;;;;;;;;;;;;;;;17.48;86.05;95041.69;5134359;27;1051;-50
2022/05/28 01:00:25;;;;;;;;;;;;;;;17.52;86.27;95023.19;5134251;27;1980;-50
2022/05/28 01:02:51;;;;;;;;;;;;;;;17.46;86.04;95035.66;5134249;28;1145;-49
2022/05/28 01:05:28;;;;;;;;;;;;;;;17.23;86.86;95033.34;5128500;28;1196;-49
2022/05/28 01:07:54;;;;;;;;;;;;;;;17.11;88.06;95029.56;5113736;28;944;-50
2022/05/28 01:10:32;;;;;;;;;;;;;;;17.14;87.38;95031.88;5113712;28;1038;-49
2022/05/28 01:13:22;;;;;;;;;;;;;;;17.08;87.87;95032.69;5113519;28;1003;-49
2022/05/28 01:15:51;;;;;;;;;;;;;;;17.24;87.17;95029.59;5113721;28;1019;-49
2022/05/28 01:18:20;;;;;;;;;;;;;;;17.32;87.11;95029.41;5113632;28;968;-49
2022/05/28 01:20:49;;;;;;;;;;;;;;;17.31;86.77;95035.03;5113372;28;1909;-49
2022/05/28 01:23:15;;;;;;;;;;;;;;;17.18;86.94;95041.22;5113564;28;966;-49
2022/05/28 01:25:51;;;;;;;;;;;;;;;17.14;87.73;95034.56;5113124;28;1096;-49
2022/05/28 01:28:19;;;;;;;;;;;;;;;17.29;87.67;95029.00;5113162;28;1091;-49
2022/05/28 01:30:46;;;;;;;;;;;;;;;17.16;87.28;95021.69;5113435;28;1056;-49
2022/05/28 01:33:14;;;;;;;;;;;;;;;17.18;87.56;95016.91;5115795;28;1003;-49
2022/05/28 01:35:41;;;;;;;;;;;;;;;17.25;87.72;95016.94;5117341;28;1047;-49
2022/05/28 01:38:08;;;;;;;;;;;;;;;17.11;87.05;95016.91;5117190;28;1027;-49
2022/05/28 01:40:35;;;;;;;;;;;;;;;17.24;87.44;95015.25;5117137;28;1906;-49
2022/05/28 01:43:04;;;;;;;;;;;;;;;17.36;87.54;95019.03;5116851;28;1043;-49
2022/05/28 01:45:31;;;;;;;;;;;;;;;17.39;87.53;95010.50;5117142;28;961;-49
2022/05/28 01:47:59;;;;;;;;;;;;;;;17.34;87.43;95008.41;5116860;28;1875;-49
2022/05/28 01:50:26;;;;;;;;;;;;;;;17.36;87.12;95000.13;5117072;28;1000;-49
2022/05/28 01:52:52;;;;;;;;;;;;;;;17.38;87.90;95000.75;5116781;28;1027;-49
2022/05/28 01:55:21;;;;;;;;;;;;;;;17.41;87.77;94999.47;5116733;28;1032;-49
2022/05/28 01:57:47;;;;;;;;;;;;;;;17.30;87.04;95004.47;5116625;28;1055;-49
2022/05/28 02:00:13;;;;;;;;;;;;;;;17.15;88.09;95018.16;5117022;28;955;-49
2022/05/28 02:02:39;;;;;;;;;;;;;;;17.14;88.71;95021.06;5116720;28;1997;-50
2022/05/28 02:05:06;;;;;;;;;;;;;;;17.22;88.03;95014.63;5120593;27;1207;-49
2022/05/28 02:07:32;;;;;;;;;;;;;;;17.10;87.16;95019.81;5136967;27;1091;-49
2022/05/28 02:10:00;;;;;;;;;;;;;;;16.90;88.57;95026.00;5137386;27;988;-50
2022/05/28 02:12:30;;;;;;;;;;;;;;;16.96;88.58;95029.75;5137039;27;1229;-50
2022/05/28 02:15:07;;;;;;;;;;;;;;;16.96;88.15;95040.56;5136821;27;1223;-49
2022/05/28 02:17:33;;;;;;;;;;;;;;;17.03;87.53;95051.38;5137046;27;1050;-49
2022/05/28 02:20:08;;;;;;;;;;;;;;;16.99;87.21;95061.75;5136951;27;1051;-48
2022/05/28 02:22:42;;;;;;;;;;;;;;;17.00;86.90;95070.66;5136670;27;1909;-48
2022/05/28 02:25:16;;;;;;;;;;;;;;;17.07;87.96;95066.13;5136971;27;1011;-48
2022/05/28 02:27:44;;;;;;;;;;;;;;;17.32;86.76;95060.97;5136995;27;987;-49
2022/05/28 02:30:11;;;;;;;;;;;;;;;17.54;85.64;95057.06;5136617;27;1175;-50
2022/05/28 02:32:37;;;;;;;;;;;;;;;17.56;86.03;95051.47;5136660;27;1262;-50
2022/05/28 02:35:03;;;;;;;;;;;;;;;17.60;86.31;95051.88;5136782;27;992;-49
2022/05/28 02:37:29;;;;;;;;;;;;;;;17.53;86.45;95052.72;5136503;27;1051;-49
2022/05/28 02:39:57;;;;;;;;;;;;;;;17.64;86.51;95048.56;5136687;27;1028;-49
2022/05/28 02:42:23;;;;;;;;;;;;;;;17.71;86.54;95035.88;5136322;27;1914;-49
2022/05/28 02:44:49;;;;;;;;;;;;;;;17.83;86.12;95040.66;5135281;27;968;-49
2022/05/28 02:47:15;;;;;;;;;;;;;;;17.73;86.90;95039.19;5136488;27;972;-49
2022/05/28 02:49:41;;;;;;;;;;;;;;;17.68;87.31;95040.84;5136062;27;1005;-50
2022/05/28 02:52:08;;;;;;;;;;;;;;;17.63;87.55;95038.78;5136343;27;1028;-49
2022/05/28 02:54:34;;;;;;;;;;;;;;;17.67;86.41;95040.03;5136183;27;1011;-49
2022/05/28 02:57:01;;;;;;;;;;;;;;;17.59;87.08;95037.53;5136213;27;1971;-49
2022/05/28 02:59:27;;;;;;;;;;;;;;;17.64;86.83;95039.63;5136201;27;1051;-49
2022/05/28 03:01:53;;;;;;;;;;;;;;;17.55;87.92;95036.31;5136148;27;1910;-49
2022/05/28 03:04:19;;;;;;;;;;;;;;;17.49;88.12;95039.81;5136214;27;1052;-49
2022/05/28 03:06:45;;;;;;;;;;;;;;;17.53;87.92;95038.38;5117849;27;1160;-49
2022/05/28 03:09:12;;;;;;;;;;;;;;;17.71;86.64;95032.34;5115210;28;1584;-49
2022/05/28 03:11:38;;;;;;;;;;;;;;;17.86;86.15;95040.28;5115517;28;976;-49
2022/05/28 03:14:05;;;;;;;;;;;;;;;17.76;86.64;95040.66;5115095;28;1148;-49
2022/05/28 03:16:31;;;;;;;;;;;;;;;17.79;86.81;95045.63;5115480;28;976;-49
2022/05/28 03:18:57;;;;;;;;;;;;;;;17.76;86.55;95051.47;5115394;28;967;-49
2022/05/28 03:21:23;;;;;;;;;;;;;;;17.66;87.35;95051.91;5115024;28;2046;-49
2022/05/28 03:23:49;;;;;;;;;;;;;;;17.44;87.22;95045.84;5114980;28;1034;-49
2022/05/28 03:26:17;;;;;;;;;;;;;;;17.40;87.53;95046.47;5115109;28;1980;-49
2022/05/28 03:28:43;;;;;;;;;;;;;;;17.39;87.71;95051.03;5115009;28;1056;-49
2022/05/28 03:31:09;;;;;;;;;;;;;;;17.34;87.66;95058.94;5114946;28;1970;-49
2022/05/28 03:33:35;;;;;;;;;;;;;;;17.32;88.40;95061.84;5114945;28;1031;-49
2022/05/28 03:36:01;;;;;;;;;;;;;;;17.40;88.24;95060.00;5114998;28;965;-49
2022/05/28 03:38:27;;;;;;;;;;;;;;;17.21;86.80;95062.44;5114824;28;1095;-49
2022/05/28 03:40:54;;;;;;;;;;;;;;;17.16;87.88;95051.41;5114529;28;1988;-49
2022/05/28 03:43:20;;;;;;;;;;;;;;;17.41;87.61;95058.94;5114705;28;1157;-49
2022/05/28 03:45:46;;;;;;;;;;;;;;;17.58;87.40;95046.69;5114764;28;1177;-48
2022/05/28 03:48:12;;;;;;;;;;;;;;;17.67;87.33;95042.72;5115269;28;980;-48
2022/05/28 03:50:38;;;;;;;;;;;;;;;17.66;86.41;95041.09;5114583;28;1020;-48
2022/05/28 03:53:04;;;;;;;;;;;;;;;17.61;86.30;95032.75;5114583;28;1070;-48
2022/05/28 03:55:30;;;;;;;;;;;;;;;17.65;87.31;95030.47;5113953;28;1035;-50
2022/05/28 03:57:56;;;;;;;;;;;;;;;17.85;86.69;95038.59;5114552;28;1052;-48
2022/05/28 04:00:22;;;;;;;;;;;;;;;17.95;86.80;95034.44;5114166;28;1048;-48
2022/05/28 04:02:48;;;;;;;;;;;;;;;17.79;87.52;95037.53;5114673;28;1965;-48
2022/05/28 04:05:15;;;;;;;;;;;;;;;17.69;87.96;95040.66;5119200;27;1212;-47
2022/05/28 04:07:41;;;;;;;;;;;;;;;17.89;88.15;95051.50;5135086;27;933;-48
2022/05/28 04:10:08;;;;;;;;;;;;;;;18.22;87.90;95044.38;5134908;27;964;-47
2022/05/28 04:12:34;;;;;;;;;;;;;;;18.46;86.37;95051.81;5134660;27;1032;-48
2022/05/28 04:15:00;;;;;;;;;;;;;;;18.53;86.46;95038.25;5134519;27;1182;-48
2022/05/28 04:17:26;;;;;;;;;;;;;;;18.67;86.22;95056.13;5134676;27;1111;-47
2022/05/28 04:19:52;;;;;;;;;;;;;;;18.73;85.79;95052.56;5134347;27;1102;-48
2022/05/28 04:22:19;;;;;;;;;;;;;;;18.85;85.61;95052.75;5134808;27;1905;-48
2022/05/28 04:24:45;;;;;;;;;;;;;;;18.96;84.29;95040.41;5134323;27;1016;-48
2022/05/28 04:27:11;;;;;;;;;;;;;;;18.91;83.24;95038.38;5134627;27;1000;-48
2022/05/28 04:29:37;;;;;;;;;;;;;;;18.95;82.44;95037.91;5134400;27;1072;-48
2022/05/28 04:32:04;;;;;;;;;;;;;;;19.02;83.40;95044.13;5133412;27;950;-47
2022/05/28 04:34:30;;;;;;;;;;;;;;;19.29;83.11;95039.38;5134675;27;1015;-48
2022/05/28 04:36:56;;;;;;;;;;;;;;;19.20;82.96;95029.84;5134473;27;1052;-48
2022/05/28 04:39:22;;;;;;;;;;;;;;;19.20;83.81;95037.97;5134254;27;2023;-48
2022/05/28 04:41:48;;;;;;;;;;;;;;;19.17;82.92;95038.44;5134118;27;1906;-48
2022/05/28 04:44:15;;;;;;;;;;;;;;;19.12;82.40;95044.50;5134337;27;1094;-48
2022/05/28 04:46:41;;;;;;;;;;;;;;;19.38;81.75;95039.97;5134319;28;977;-48
2022/05/28 04:49:07;;;;;;;;;;;;;;;19.60;81.93;95035.84;5134275;27;1215;-48
2022/05/28 04:51:33;;;;;;;;;;;;;;;19.80;80.42;95037.59;5134313;28;1043;-48
2022/05/28 04:53:59;;;;;;;;;;;;;;;19.89;80.76;95044.41;5134041;28;1071;-48
2022/05/28 04:56:25;;;;;;;;;;;;;;;20.16;79.38;95044.19;5134042;28;1039;-48
2022/05/28 04:58:51;;;;;;;;;;;;;;;20.42;77.74;95037.66;5134198;27;1055;-48
2022/05/28 05:01:19;;;;;;;;;;;;;;;20.53;77.45;95030.66;5134027;27;1992;-48
2022/05/28 05:03:45;;;;;;;;;;;;;;;20.60;78.71;95034.13;5134101;27;956;-48
2022/05/28 05:06:11;;;;;;;;;;;;;;;20.80;77.43;95032.00;5121053;28;1204;-48
2022/05/28 05:08:37;;;;;;;;;;;;;;;21.06;76.59;95043.63;5116713;28;1091;-48
2022/05/28 05:11:03;;;;;;;;;;;;;;;21.34;75.25;95045.75;5117874;28;1012;-48
2022/05/28 05:13:30;;;;;;;;;;;;;;;21.66;75.57;95040.06;5117292;28;1139;-48
2022/05/28 05:15:56;;;;;;;;;;;;;;;21.77;74.96;95043.88;5117464;28;1036;-48
2022/05/28 05:18:22;;;;;;;;;;;;;;;21.73;74.45;95045.41;5117477;28;973;-48
2022/05/28 05:20:48;;;;;;;;;;;;;;;21.85;71.74;95032.63;5117611;28;1981;-48
2022/05/28 05:23:15;;;;;;;;;;;;;;;22.12;72.36;95030.31;5117767;28;1063;-48
2022/05/28 05:25:41;;;;;;;;;;;;;;;22.31;69.70;95039.22;5117336;28;956;-48
2022/05/28 05:28:07;;;;;;;;;;;;;;;22.49;70.39;95040.16;5117701;28;1047;-48
2022/05/28 05:30:33;;;;;;;;;;;;;;;22.38;70.74;95048.09;5117850;28;941;-48
2022/05/28 05:32:59;;;;;;;;;;;;;;;22.29;70.75;95054.97;5117086;28;1031;-48
2022/05/28 05:35:25;;;;;;;;;;;;;;;22.49;71.68;95053.78;5117618;28;1031;-48
2022/05/28 05:37:51;;;;;;;;;;;;;;;22.72;71.58;95052.91;5117268;28;983;-48
2022/05/28 05:40:17;;;;;;;;;;;;;;;22.50;72.55;95041.81;5117318;28;1035;-48
2022/05/28 05:42:43;;;;;;;;;;;;;;;22.33;73.14;95048.00;5117232;28;2025;-48
2022/05/28 05:45:09;;;;;;;;;;;;;;;22.35;72.92;95040.41;5117054;28;1032;-48
2022/05/28 05:47:36;;;;;;;;;;;;;;;22.47;73.29;95036.84;5116731;28;1883;-48
2022/05/28 05:50:02;;;;;;;;;;;;;;;22.42;73.45;95032.09;5117219;28;963;-48
2022/05/28 05:52:28;;;;;;;;;;;;;;;22.28;74.76;95045.13;5117059;28;1007;-48
2022/05/28 05:54:54;;;;;;;;;;;;;;;22.16;76.11;95041.56;5117022;28;1031;-48
2022/05/28 05:57:20;;;;;;;;;;;;;;;22.02;75.47;95028.19;5116533;28;1024;-48
2022/05/28 05:59:47;;;;;;;;;;;;;;;21.99;74.82;95030.56;5116842;28;1000;-49
2022/05/28 06:02:13;;;;;;;;;;;;;;;22.09;75.80;95038.13;5116776;28;1998;-48
2022/05/28 06:04:39;;;;;;;;;;;;;;;22.40;75.05;95045.13;5116601;27;1203;-48
2022/05/28 06:07:05;;;;;;;;;;;;;;;22.53;74.37;95039.44;5137060;27;1031;-48
2022/05/28 06:09:32;;;;;;;;;;;;;;;22.50;74.41;95033.63;5137280;27;1015;-48
2022/05/28 06:11:58;;;;;;;;;;;;;;;22.29;72.86;95024.16;5136891;27;1063;-48
2022/05/28 06:14:24;;;;;;;;;;;;;;;22.22;75.75;95030.53;5136846;27;1820;-48
2022/05/28 06:16:50;;;;;;;;;;;;;;;22.42;72.79;95030.22;5137100;27;1055;-48
2022/05/28 06:19:16;;;;;;;;;;;;;;;22.25;73.33;95025.69;5137365;27;1056;-47
2022/05/28 06:21:42;;;;;;;;;;;;;;;22.20;75.88;95029.13;5136850;27;1909;-48
2022/05/28 06:24:08;;;;;;;;;;;;;;;22.26;75.21;95032.84;5137001;27;1087;-48
2022/05/28 06:26:34;;;;;;;;;;;;;;;22.42;72.44;95027.50;5137031;27;1008;-48
2022/05/28 06:29:00;;;;;;;;;;;;;;;22.85;70.58;95027.31;5136992;27;972;-48
2022/05/28 06:31:26;;;;;;;;;;;;;;;23.22;70.16;95021.50;5136653;27;1106;-49
2022/05/28 06:33:52;;;;;;;;;;;;;;;23.67;67.02;95029.72;5136848;27;1194;-48
2022/05/28 06:36:19;;;;;;;;;;;;;;;23.93;65.41;95022.00;5136660;27;905;-48
2022/05/28 06:38:45;;;;;;;;;;;;;;;24.05;65.41;95030.09;5136388;27;913;-48
2022/05/28 06:41:12;;;;;;;;;;;;;;;24.13;65.91;95029.69;5136531;27;1902;-48
2022/05/28 06:43:38;;;;;;;;;;;;;;;24.17;66.70;95022.66;5136578;27;968;-49
2022/05/28 06:46:05;;;;;;;;;;;;;;;24.00;66.20;95027.28;5136361;27;1012;-49
2022/05/28 06:48:31;;;;;;;;;;;;;;;23.91;68.36;95019.50;5136550;27;975;-49
2022/05/28 06:51:04;;;;;;;;;;;;;;;24.04;66.14;95028.47;5136672;27;1075;-49
2022/05/28 06:53:35;;;;;;;;;;;;;;;24.07;67.20;95019.75;5136279;27;1044;-48
2022/05/28 06:56:01;;;;;;;;;;;;;;;23.97;67.34;95017.69;5136309;27;1094;-49
2022/05/28 06:58:27;;;;;;;;;;;;;;;24.26;65.88;95023.06;5136003;27;969;-49
2022/05/28 07:00:53;;;;;;;;;;;;;;;24.39;65.65;95016.41;5135991;27;1905;-49
2022/05/28 07:03:21;;;;;;;;;;;;;;;24.65;64.82;95014.91;5136006;27;925;-49
2022/05/28 07:05:48;;;;;;;;;;;;;;;24.74;60.08;95005.19;5126523;27;1265;-49
2022/05/28 07:08:14;;;;;;;;;;;;;;;24.72;59.94;95004.63;5115472;28;992;-49
2022/05/28 07:10:42;;;;;;;;;;;;;;;24.89;62.12;95001.78;5115555;28;965;-49
2022/05/28 07:13:10;;;;;;;;;;;;;;;25.22;60.81;95000.00;5115131;28;1035;-49
2022/05/28 07:15:36;;;;;;;;;;;;;;;25.54;59.45;95002.84;5115472;28;1078;-49
2022/05/28 07:18:02;;;;;;;;;;;;;;;25.75;58.57;94998.38;5115431;28;999;-48
2022/05/28 07:20:28;;;;;;;;;;;;;;;25.78;57.13;94992.38;5115145;28;1048;-50
2022/05/28 07:22:55;;;;;;;;;;;;;;;25.81;58.23;94994.59;5114963;28;1981;-50
2022/05/28 07:25:21;;;;;;;;;;;;;;;26.13;58.18;94992.97;5114952;28;1035;-50
2022/05/28 07:27:47;;;;;;;;;;;;;;;26.22;58.54;94984.00;5114931;28;979;-50
2022/05/28 07:30:14;;;;;;;;;;;;;;;26.09;56.95;94988.00;5114442;28;1016;-50
2022/05/28 07:32:40;;;;;;;;;;;;;;;26.29;55.68;94981.00;5114901;28;1020;-50
2022/05/28 07:35:07;;;;;;;;;;;;;;;26.43;57.60;94984.13;5114828;28;1032;-50
2022/05/28 07:37:33;;;;;;;;;;;;;;;26.55;56.88;94976.50;5114933;28;952;-50
2022/05/28 07:39:59;;;;;;;;;;;;;;;26.75;58.77;94977.72;5114680;28;991;-50
2022/05/28 07:42:29;;;;;;;;;;;;;;;26.74;58.69;94978.84;5114660;28;1906;-50
2022/05/28 07:44:55;;;;;;;;;;;;;;;26.72;58.04;94979.09;5114918;28;964;-51
2022/05/28 07:47:21;;;;;;;;;;;;;;;26.84;57.44;94974.22;5114909;28;1025;-50
2022/05/28 07:49:47;;;;;;;;;;;;;;;26.70;57.82;94974.97;5114645;28;913;-49
2022/05/28 07:52:13;;;;;;;;;;;;;;;26.98;57.70;94969.06;5114658;28;1019;-49
2022/05/28 07:54:39;;;;;;;;;;;;;;;27.25;57.87;94959.84;5114124;28;921;-49
2022/05/28 07:57:05;;;;;;;;;;;;;;;27.25;57.48;94960.66;5114362;28;1024;-49
2022/05/28 07:59:31;;;;;;;;;;;;;;;27.28;57.22;94959.31;5114550;28;1068;-49
2022/05/28 08:01:57;;;;;;;;;;;;;;;27.22;55.69;94954.84;5114568;28;1902;-49
2022/05/28 08:04:23;;;;;;;;;;;;;;;27.17;53.98;94944.69;5114543;28;1007;-49
2022/05/28 08:06:49;;;;;;;;;;;;;;;27.37;55.04;94948.59;5132796;27;1153;-49
2022/05/28 08:09:15;;;;;;;;;;;;;;;27.53;54.02;94949.47;5134740;27;961;-49
2022/05/28 08:11:42;;;;;;;;;;;;;;;27.43;55.24;94945.59;5134961;27;1016;-49
2022/05/28 08:14:08;;;;;;;;;;;;;;;27.21;53.71;94940.31;5134454;27;1103;-49
2022/05/28 08:16:34;;;;;;;;;;;;;;;27.11;56.16;94931.22;5134941;27;1138;-49
2022/05/28 08:19:00;;;;;;;;;;;;;;;26.97;56.15;94936.41;5134799;27;1036;-49
2022/05/28 08:24:11;;;;;;;;;;;;;;;27.25;58.64;94933.22;5134170;27;1079;-49
2022/05/28 08:26:38;;;;;;;;;;;;;;;27.44;58.55;94929.94;5134650;27;976;-49
2022/05/28 08:29:05;;;;;;;;;;;;;;;27.51;56.43;94924.19;5134653;27;1047;-49
2022/05/28 08:31:31;;;;;;;;;;;;;;;27.34;56.46;94919.78;5134736;27;976;-49
2022/05/28 08:33:57;;;;;;;;;;;;;;;27.13;54.10;94918.06;5134651;27;1051;-49
2022/05/28 08:36:24;;;;;;;;;;;;;;;26.90;53.27;94909.25;5134664;27;971;-49
2022/05/28 08:38:50;;;;;;;;;;;;;;;26.79;55.67;94902.06;5134268;27;1019;-50
2022/05/28 08:41:21;;;;;;;;;;;;;;;26.64;54.23;94908.31;5134114;27;1979;-49
2022/05/28 08:43:50;;;;;;;;;;;;;;;26.49;55.80;94904.38;5134156;27;1230;-49
2022/05/28 08:46:17;;;;;;;;;;;;;;;26.27;55.19;94907.31;5134681;27;961;-49
2022/05/28 08:48:48;;;;;;;;;;;;;;;26.16;55.50;94913.81;5134183;27;1036;-49
2022/05/28 08:51:33;;;;;;;;;;;;;;;26.27;57.20;94906.47;5134249;27;1071;-49
2022/05/28 08:54:18;;;;;;;;;;;;;;;26.40;57.94;94905.97;5133903;28;1048;-49
2022/05/28 08:56:44;;;;;;;;;;;;;;;26.26;57.69;94902.91;5134224;28;1039;-49
2022/05/28 08:59:16;;;;;;;;;;;;;;;26.25;57.10;94900.41;5133983;28;1020;-49
2022/05/28 09:01:44;;;;;;;;;;;;;;;26.54;55.84;94897.25;5134091;27;1987;-49
2022/05/28 09:04:13;;;;;;;;;;;;;;;26.65;56.02;94897.09;5134514;27;1114;-49
2022/05/28 09:06:41;;;;;;;;;;;;;;;26.79;56.77;94891.09;5117013;27;1216;-49
2022/05/28 09:09:09;;;;;;;;;;;;;;;27.31;55.50;94892.06;5113617;28;968;-47
2022/05/28 09:11:35;;;;;;;;;;;;;;;27.64;55.25;94894.28;5113676;28;1042;-48
2022/05/28 09:14:11;;;;;;;;;;;;;;;27.92;53.73;94899.50;5113257;28;1075;-47
2022/05/28 09:16:39;;;;;;;;;;;;;;;28.01;54.12;94890.41;5113363;28;1086;-49
2022/05/28 09:19:25;;;;;;;;;;;;;;;27.83;52.83;94885.44;5113523;28;973;-48
2022/05/28 09:21:51;;;;;;;;;;;;;;;27.89;54.15;94887.16;5113301;28;1996;-49
2022/05/28 09:24:20;;;;;;;;;;;;;;;27.83;53.20;94883.56;5112980;28;1060;-49
2022/05/28 09:26:49;;;;;;;;;;;;;;;27.90;54.00;94880.53;5113442;28;1118;-49
2022/05/28 09:29:19;;;;;;;;;;;;;;;27.74;52.06;94874.22;5113402;28;972;-49
2022/05/28 09:31:50;;;;;;;;;;;;;;;27.69;52.69;94870.66;5113549;28;965;-49
2022/05/28 09:34:28;;;;;;;;;;;;;;;27.74;52.88;94863.22;5113225;28;1055;-48
2022/05/28 09:36:57;;;;;;;;;;;;;;;27.87;54.18;94861.00;5113479;28;1020;-48
2022/05/28 09:39:36;;;;;;;;;;;;;;;27.94;51.94;94854.16;5113056;28;1047;-49
2022/05/28 09:42:08;;;;;;;;;;;;;;;28.22;49.92;94852.72;5113600;28;1902;-48
2022/05/28 09:44:48;;;;;;;;;;;;;;;28.28;50.84;94841.72;5113198;28;984;-48
2022/05/28 09:47:16;;;;;;;;;;;;;;;28.32;52.83;94842.78;5113345;28;952;-48
2022/05/28 09:49:50;;;;;;;;;;;;;;;28.34;52.14;94838.66;5113235;28;971;-48
2022/05/28 09:52:24;;;;;;;;;;;;;;;27.91;51.79;94830.00;5113166;28;944;-48
2022/05/28 09:54:51;;;;;;;;;;;;;;;27.45;53.04;94830.84;5114830;28;1016;-48
2022/05/28 09:57:22;;;;;;;;;;;;;;;27.20;55.18;94823.38;5116955;28;1884;-48
2022/05/28 09:59:52;;;;;;;;;;;;;;;27.10;54.69;94819.84;5116842;28;985;-49
2022/05/28 10:02:21;;;;;;;;;;;;;;;26.94;54.29;94814.34;5116785;28;1906;-48
2022/05/28 10:05:06;;;;;;;;;;;;;;;26.83;54.29;94810.75;5117600;27;1161;-48
2022/05/28 10:07:37;;;;;;;;;;;;;;;26.68;56.83;94810.72;5137419;27;952;-48
2022/05/28 10:10:12;;;;;;;;;;;;;;;26.49;56.62;94813.91;5137187;27;1055;-48
2022/05/28 10:12:38;;;;;;;;;;;;;;;26.33;59.03;94808.66;5137205;27;1028;-48
2022/05/28 10:15:04;;;;;;;;;;;;;;;26.12;60.70;94805.00;5136811;27;1087;-48
2022/05/28 10:17:32;;;;;;;;;;;;;;;26.09;57.83;94807.19;5137258;27;1106;-48
2022/05/28 10:19:59;;;;;;;;;;;;;;;26.02;64.30;94800.31;5137148;27;1044;-48
2022/05/28 10:22:26;;;;;;;;;;;;;;;25.85;59.29;94789.53;5135387;27;2587;-48
2022/05/28 10:25:16;;;;;;;;;;;;;;;25.83;58.10;94784.31;5136699;27;996;-48
2022/05/28 10:27:50;;;;;;;;;;;;;;;25.68;59.17;94778.75;5116839;27;1148;-49
2022/05/28 10:30:25;;;;;;;;;;;;;;;25.65;60.01;94784.75;5136677;27;1087;-49
2022/05/28 10:32:52;;;;;;;;;;;;;;;25.56;64.20;94778.97;5136985;27;987;-48
2022/05/28 10:35:26;;;;;;;;;;;;;;;25.40;66.05;94779.94;5136697;27;999;-48
2022/05/28 10:37:53;;;;;;;;;;;;;;;25.26;68.43;94780.38;5136686;27;1016;-49
2022/05/28 10:40:24;;;;;;;;;;;;;;;25.01;70.05;94786.47;5136473;27;961;-48
2022/05/28 10:42:55;;;;;;;;;;;;;;;24.57;77.67;94794.81;5136574;27;1992;-48
2022/05/28 10:45:21;;;;;;;;;;;;;;;24.47;77.77;94783.72;5136600;27;1054;-48
2022/05/28 10:48:06;;;;;;;;;;;;;;;24.34;79.36;94782.22;5136708;27;1192;-48
2022/05/28 10:50:41;;;;;;;;;;;;;;;24.18;81.13;94786.69;5136425;27;1122;-48
2022/05/28 10:53:30;;;;;;;;;;;;;;;24.11;80.88;94800.53;5136386;27;1044;-48
2022/05/28 10:56:03;;;;;;;;;;;;;;;24.05;81.12;94811.66;5130551;27;1752;-48
2022/05/28 10:58:31;;;;;;;;;;;;;;;23.90;83.23;94807.66;5136473;27;1043;-48
2022/05/28 11:00:57;;;;;;;;;;;;;;;23.64;83.39;94792.81;5135988;27;1913;-47
2022/05/28 11:03:37;;;;;;;;;;;;;;;23.42;84.62;94787.28;5135989;27;998;-48
2022/05/28 11:06:15;;;;;;;;;;;;;;;23.35;84.44;94775.72;5135394;27;1161;-48
2022/05/28 11:08:41;;;;;;;;;;;;;;;23.31;85.54;94790.94;5136053;27;1039;-48
2022/05/28 11:11:26;;;;;;;;;;;;;;;23.26;85.13;94810.78;5135815;27;1092;-48
2022/05/28 11:14:10;;;;;;;;;;;;;;;23.21;81.31;94796.25;5136199;27;1230;-57
2022/05/28 11:16:38;;;;;;;;;;;;;;;23.02;82.47;94785.56;5135838;27;1059;-48
2022/05/28 11:19:07;;;;;;;;;;;;;;;22.81;82.82;94771.59;5136171;27;1016;-48
2022/05/28 11:21:49;;;;;;;;;;;;;;;22.77;81.01;94781.34;5135555;27;2000;-48
2022/05/28 11:24:15;;;;;;;;;;;;;;;22.62;82.29;94775.63;5135554;27;1106;-49
2022/05/28 11:26:46;;;;;;;;;;;;;;;22.50;77.59;94781.13;5135527;27;1004;-48
2022/05/28 11:29:14;;;;;;;;;;;;;;;22.23;74.84;94786.28;5135941;27;1020;-50
2022/05/28 11:31:58;;;;;;;;;;;;;;;21.97;75.62;94798.59;5135417;27;1011;-49
2022/05/28 11:34:33;;;;;;;;;;;;;;;21.79;76.55;94799.56;5136080;27;965;-48
2022/05/28 11:37:04;;;;;;;;;;;;;;;21.50;76.98;94798.69;5135702;27;981;-48
2022/05/28 11:39:38;;;;;;;;;;;;;;;21.35;77.43;94786.34;5135481;27;1019;-48
2022/05/28 11:42:05;;;;;;;;;;;;;;;21.00;78.25;94778.19;5135104;27;1909;-48
2022/05/28 11:44:35;;;;;;;;;;;;;;;21.01;75.75;94782.56;5135419;27;1034;-48
2022/05/28 11:47:13;;;;;;;;;;;;;;;20.97;77.10;94794.97;5135186;27;1031;-48
2022/05/28 11:52:33;;;;;;;;;;;;;;;20.67;74.95;94795.84;5135124;27;1020;-48
2022/05/28 11:54:59;;;;;;;;;;;;;;;20.59;75.29;94790.72;5135257;27;1133;-54
2022/05/28 11:57:31;;;;;;;;;;;;;;;20.41;76.10;94775.31;5134913;27;1060;-49
2022/05/28 11:59:59;;;;;;;;;;;;;;;20.24;77.86;94769.72;5135118;27;1019;-48
2022/05/28 12:02:32;;;;;;;;;;;;;;;20.27;76.50;94778.22;5134872;27;1913;-48
2022/05/28 12:04:58;;;;;;;;;;;;;;;20.34;76.58;94777.34;5135269;27;1161;-48
2022/05/28 12:07:50;;;;;;;;;;;;;;;20.26;79.54;94779.31;5134764;27;960;-48
2022/05/28 12:13:41;;;;;;;;;;;;;;;20.14;74.59;94783.03;5091119;28;1235;-48
2022/05/28 12:16:09;;;;;;;;;;;;;;;20.22;75.61;94772.69;5091458;28;964;-49
2022/05/28 12:18:36;;;;;;;;;;;;;;;20.31;77.53;94765.03;5091268;28;972;-49
2022/05/28 12:21:03;;;;;;;;;;;;;;;20.32;76.55;94772.13;5091528;28;1918;-49
2022/05/28 12:23:40;;;;;;;;;;;;;;;20.26;76.52;94782.03;5091070;28;1021;-49
2022/05/28 12:26:17;;;;;;;;;;;;;;;20.03;78.31;94781.91;5091541;28;966;-49
2022/05/28 12:28:49;;;;;;;;;;;;;;;20.06;77.09;94785.00;5091202;28;1021;-50
2022/05/28 12:31:23;;;;;;;;;;;;;;;20.25;75.44;94776.81;5091402;28;949;-49
2022/05/28 12:33:53;;;;;;;;;;;;;;;20.17;78.37;94779.88;5091166;28;940;-49
2022/05/28 12:36:23;;;;;;;;;;;;;;;19.92;79.05;94788.94;5091423;28;1008;-49
2022/05/28 12:38:57;;;;;;;;;;;;;;;19.70;77.84;94786.66;5091157;28;1036;-49
2022/05/28 12:41:27;;;;;;;;;;;;;;;19.69;77.03;94785.03;5091189;28;1963;-49
2022/05/28 12:43:56;;;;;;;;;;;;;;;19.66;77.47;94801.72;5099076;27;1028;-49
2022/05/28 12:46:42;;;;;;;;;;;;;;;19.53;78.16;94826.28;5134465;27;1035;-49
2022/05/28 12:49:11;;;;;;;;;;;;;;;19.50;77.87;94845.69;5134212;27;1067;-49
2022/05/28 12:51:52;;;;;;;;;;;;;;;19.67;78.91;94856.78;5134274;27;1046;-49
2022/05/28 12:54:37;;;;;;;;;;;;;;;19.75;79.42;94851.13;5133980;27;1019;-49
2022/05/28 12:57:11;;;;;;;;;;;;;;;19.84;76.43;94830.78;5134337;27;1167;-49
2022/05/28 12:59:44;;;;;;;;;;;;;;;19.79;79.93;94810.81;5134388;27;945;-49
2022/05/28 13:02:21;;;;;;;;;;;;;;;19.85;79.16;94805.28;5133983;27;1992;-49
2022/05/28 13:04:50;;;;;;;;;;;;;;;19.89;79.88;94816.53;5133396;27;1203;-49
2022/05/28 13:07:22;;;;;;;;;;;;;;;20.06;77.21;94820.28;5113781;28;1030;-49
2022/05/28 13:09:50;;;;;;;;;;;;;;;20.46;77.11;94818.91;5113642;28;1020;-49
2022/05/28 13:12:20;;;;;;;;;;;;;;;20.57;77.13;94820.84;5113514;28;1047;-49
2022/05/28 13:14:46;;;;;;;;;;;;;;;20.61;77.13;94807.66;5113395;28;1253;-49
2022/05/28 13:17:12;;;;;;;;;;;;;;;20.89;75.74;94808.88;5113699;28;980;-49